createdAt,value
2023-01-08T00:01:10.722Z,80.69
2023-01-08T00:03:38.541Z,79.54
2023-01-08T00:06:07.786Z,80.13
2023-01-08T00:08:34.955Z,80.18
2023-01-08T00:11:02.930Z,79.93
2023-01-08T00:13:29.844Z,80.81
2023-01-08T00:15:56.762Z,80.83
2023-01-08T00:18:24.870Z,81.51
2023-01-08T00:20:51.611Z,81.37
2023-01-08T00:23:20.093Z,81.23
2023-01-08T00:25:46.883Z,81.17
2023-01-08T00:28:15.196Z,81.69
2023-01-08T00:30:42.526Z,82.01
2023-01-08T00:33:10.653Z,82.41
2023-01-08T00:35:40.994Z,82.75
2023-01-08T00:38:08.006Z,82.82
2023-01-08T00:40:35.755Z,83.03
2023-01-08T00:43:02.595Z,83.35
2023-01-08T00:45:29.326Z,83.13
2023-01-08T00:47:56.457Z,83.20
2023-01-08T00:50:23.211Z,83.51
2023-01-08T00:52:50.134Z,83.16
2023-01-08T00:55:17.111Z,84.21
2023-01-08T00:57:44.211Z,83.37
2023-01-08T01:00:14.565Z,83.38
2023-01-08T01:02:41.799Z,83.55
2023-01-08T01:05:09.992Z,83.70
2023-01-08T01:07:37.692Z,83.22
2023-01-08T01:10:05.013Z,83.80
2023-01-08T01:12:31.897Z,83.11
2023-01-08T01:14:58.749Z,83.89
2023-01-08T01:17:25.638Z,83.39
2023-01-08T01:19:52.448Z,83.36
2023-01-08T01:22:19.290Z,83.71
2023-01-08T01:24:46.168Z,83.91
2023-01-08T01:27:13.054Z,83.79
2023-01-08T01:29:39.947Z,84.80
2023-01-08T01:32:06.975Z,84.06
2023-01-08T01:34:33.642Z,84.35
2023-01-08T01:37:00.747Z,84.62
2023-01-08T01:39:27.656Z,84.70
2023-01-08T01:41:54.441Z,84.23
2023-01-08T01:44:36.625Z,84.09
2023-01-08T01:47:09.780Z,85.37
2023-01-08T01:49:36.878Z,85.83
2023-01-08T01:52:05.983Z,86.22
2023-01-08T01:54:32.807Z,86.90
2023-01-08T01:57:00.387Z,87.31
2023-01-08T01:59:27.454Z,87.77
2023-01-08T02:01:55.775Z,87.77
2023-01-08T02:04:22.671Z,88.30
2023-01-08T02:06:58.271Z,87.48
2023-01-08T02:09:48.347Z,88.23
2023-01-08T02:12:23.635Z,88.34
2023-01-08T02:15:02.641Z,89.17
2023-01-08T02:17:38.632Z,89.07
2023-01-08T02:20:12.968Z,89.89
2023-01-08T02:22:39.614Z,89.20
2023-01-08T02:25:22.984Z,89.55
2023-01-08T02:27:51.548Z,89.66
2023-01-08T02:30:19.014Z,90.41
2023-01-08T02:32:45.932Z,89.87
2023-01-08T02:35:13.160Z,90.01
2023-01-08T02:37:40.887Z,89.68
2023-01-08T02:40:07.942Z,89.83
2023-01-08T02:43:06.723Z,89.63
2023-01-08T02:45:37.570Z,89.15
2023-01-08T02:48:12.391Z,88.96
2023-01-08T02:50:47.063Z,88.48
2023-01-08T02:53:32.475Z,88.98
2023-01-08T02:56:02.480Z,88.68
2023-01-08T02:58:31.252Z,88.21
2023-01-08T03:00:59.079Z,88.56
2023-01-08T03:03:27.863Z,88.43
2023-01-08T03:06:06.577Z,87.41
2023-01-08T03:08:35.125Z,87.67
2023-01-08T03:11:07.565Z,87.30
2023-01-08T03:13:46.054Z,87.86
2023-01-08T03:16:17.147Z,87.40
2023-01-08T03:18:53.170Z,87.03
2023-01-08T03:21:22.407Z,86.43
2023-01-08T03:23:50.918Z,86.54
2023-01-08T03:26:22.182Z,87.29
2023-01-08T03:28:52.380Z,87.28
2023-01-08T03:31:19.753Z,86.29
2023-01-08T03:33:47.911Z,86.24
2023-01-08T03:36:24.634Z,86.55
2023-01-08T03:38:58.676Z,85.53
2023-01-08T03:41:27.283Z,85.78
2023-01-08T03:43:54.043Z,84.27
2023-01-08T03:46:24.798Z,85.09
2023-01-08T03:48:51.886Z,84.32
2023-01-08T03:51:18.893Z,83.36
2023-01-08T03:53:47.403Z,83.97
2023-01-08T03:56:14.324Z,83.74
2023-01-08T03:58:41.344Z,85.29
2023-01-08T04:01:08.279Z,84.92
2023-01-08T04:03:35.061Z,84.81
2023-01-08T04:06:02.016Z,84.57
2023-01-08T04:08:28.785Z,84.99
2023-01-08T04:10:55.561Z,85.35
2023-01-08T04:13:22.431Z,85.17
2023-01-08T04:15:50.325Z,85.40
2023-01-08T04:18:17.976Z,85.71
2023-01-08T04:20:48.226Z,85.08
2023-01-08T04:23:15.609Z,84.73
2023-01-08T04:25:42.438Z,84.71
2023-01-08T04:28:09.213Z,84.38
2023-01-08T04:30:37.169Z,83.86
2023-01-08T04:33:04.063Z,84.70
2023-01-08T04:35:30.866Z,85.00
2023-01-08T04:37:57.845Z,84.29
2023-01-08T04:40:24.514Z,84.80
2023-01-08T04:42:51.374Z,84.11
2023-01-08T04:45:18.700Z,84.46
2023-01-08T04:47:45.517Z,84.93
2023-01-08T04:50:12.301Z,85.55
2023-01-08T04:52:38.985Z,85.45
2023-01-08T04:55:06.252Z,85.10
2023-01-08T04:57:33.443Z,85.90
2023-01-08T05:00:00.275Z,85.34
2023-01-08T05:02:27.109Z,86.11
2023-01-08T05:04:53.963Z,85.80
2023-01-08T05:07:20.995Z,85.89
2023-01-08T05:09:47.683Z,85.13
2023-01-08T05:12:14.300Z,84.59
2023-01-08T05:14:41.228Z,84.12
2023-01-08T05:17:07.898Z,83.83
2023-01-08T05:19:34.781Z,84.39
2023-01-08T05:22:01.673Z,83.37
2023-01-08T05:24:28.726Z,83.58
2023-01-08T05:26:55.435Z,83.21
2023-01-08T05:29:22.368Z,83.72
2023-01-08T05:31:49.064Z,84.24
2023-01-08T05:34:15.805Z,84.46
2023-01-08T05:36:43.260Z,84.73
2023-01-08T05:39:10.071Z,85.19
2023-01-08T05:41:36.828Z,85.56
2023-01-08T05:44:03.767Z,86.36
2023-01-08T05:46:30.465Z,85.52
2023-01-08T05:48:57.804Z,85.52
2023-01-08T05:51:24.479Z,85.86
2023-01-08T05:53:51.180Z,85.31
2023-01-08T05:56:18.035Z,85.51
2023-01-08T05:58:44.704Z,85.32
2023-01-08T06:01:15.866Z,85.93
2023-01-08T06:03:43.026Z,86.38
2023-01-08T06:06:10.838Z,86.79
2023-01-08T06:08:37.999Z,86.46
2023-01-08T06:11:06.891Z,86.53
2023-01-08T06:13:34.439Z,86.72
2023-01-08T06:16:02.103Z,87.00
2023-01-08T06:18:29.928Z,87.18
2023-01-08T06:20:56.740Z,87.48
2023-01-08T06:23:23.423Z,87.14
2023-01-08T06:25:57.386Z,87.86
2023-01-08T06:28:24.383Z,88.10
2023-01-08T06:30:51.573Z,88.04
2023-01-08T06:33:21.202Z,87.50
2023-01-08T06:35:48.833Z,88.58
2023-01-08T06:38:16.131Z,87.89
2023-01-08T06:40:42.929Z,87.93
2023-01-08T06:43:09.685Z,88.10
2023-01-08T06:45:36.561Z,87.91
2023-01-08T06:48:04.539Z,87.39
2023-01-08T06:50:32.141Z,87.55
2023-01-08T06:52:59.060Z,87.60
2023-01-08T06:55:27.029Z,86.76
2023-01-08T06:57:55.256Z,87.49
2023-01-08T07:00:26.209Z,87.98
2023-01-08T07:02:56.361Z,87.68
2023-01-08T07:05:24.959Z,88.12
2023-01-08T07:07:51.653Z,88.58
2023-01-08T07:10:20.033Z,88.42
2023-01-08T07:12:47.120Z,88.69
2023-01-08T07:15:14.036Z,89.12
2023-01-08T07:17:40.969Z,89.42
2023-01-08T07:20:09.687Z,88.90
2023-01-08T07:22:36.755Z,89.34
2023-01-08T07:25:05.172Z,89.94
2023-01-08T07:27:32.217Z,89.71
2023-01-08T07:29:59.062Z,89.60
2023-01-08T07:32:25.885Z,90.43
2023-01-08T07:34:54.785Z,89.78
2023-01-08T07:37:21.777Z,90.01
2023-01-08T07:39:48.684Z,89.78
2023-01-08T07:42:15.392Z,90.17
2023-01-08T07:44:42.245Z,89.63
2023-01-08T07:47:10.251Z,89.93
2023-01-08T07:49:37.122Z,89.49
2023-01-08T07:52:03.945Z,89.47
2023-01-08T07:54:31.110Z,89.00
2023-01-08T07:56:57.848Z,89.10
2023-01-08T07:59:24.867Z,88.82
2023-01-08T08:01:51.701Z,88.47
2023-01-08T08:04:19.366Z,88.70
2023-01-08T08:06:46.048Z,88.51
2023-01-08T08:09:13.269Z,88.61
2023-01-08T08:11:40.049Z,87.85
2023-01-08T08:14:07.464Z,87.83
2023-01-08T08:16:34.722Z,87.50
2023-01-08T08:19:01.786Z,88.21
2023-01-08T08:21:29.574Z,87.86
2023-01-08T08:23:56.958Z,87.94
2023-01-08T08:26:24.222Z,87.94
2023-01-08T08:28:51.120Z,87.89
2023-01-08T08:31:18.032Z,87.82
2023-01-08T08:33:44.846Z,87.69
2023-01-08T08:36:11.821Z,86.77
2023-01-08T08:38:38.961Z,87.44
2023-01-08T08:41:06.394Z,87.52
2023-01-08T08:43:33.136Z,87.60
2023-01-08T08:46:00.089Z,87.18
2023-01-08T08:48:27.140Z,86.98
2023-01-08T08:50:54.134Z,86.67
2023-01-08T08:53:21.005Z,85.65
2023-01-08T08:55:47.952Z,86.69
2023-01-08T08:58:14.698Z,86.55
2023-01-08T09:00:43.465Z,86.45
2023-01-08T09:03:17.291Z,86.18
2023-01-08T09:05:44.184Z,85.94
2023-01-08T09:08:12.717Z,85.51
2023-01-08T09:10:42.385Z,85.52
2023-01-08T09:13:09.848Z,85.97
2023-01-08T09:15:37.279Z,85.41
2023-01-08T09:18:04.330Z,85.47
2023-01-08T09:20:30.968Z,85.08
2023-01-08T09:23:01.684Z,85.51
2023-01-08T09:25:29.100Z,84.69
2023-01-08T09:28:04.321Z,85.01
2023-01-08T09:30:31.716Z,85.67
2023-01-08T09:33:02.372Z,85.47
2023-01-08T09:35:30.075Z,85.79
2023-01-08T09:37:56.801Z,84.90
2023-01-08T09:40:27.660Z,84.44
2023-01-08T09:42:58.257Z,84.69
2023-01-08T09:45:36.426Z,83.46
2023-01-08T09:48:06.530Z,83.39
2023-01-08T09:50:34.361Z,82.46
2023-01-08T09:53:01.504Z,82.33
2023-01-08T09:55:30.311Z,82.36
2023-01-08T09:57:57.044Z,82.20
2023-01-08T10:00:29.479Z,81.09
2023-01-08T10:02:56.644Z,81.65
2023-01-08T10:05:25.291Z,81.39
2023-01-08T10:07:52.317Z,80.80
2023-01-08T10:10:28.382Z,80.78
2023-01-08T10:12:56.023Z,81.96
2023-01-08T10:15:23.077Z,82.81
2023-01-08T10:18:07.648Z,81.11
2023-01-08T10:20:34.431Z,81.88
2023-01-08T10:23:16.462Z,81.56
2023-01-08T10:25:59.999Z,82.34
2023-01-08T10:28:35.808Z,82.01
2023-01-08T10:31:11.917Z,81.70
2023-01-08T10:33:41.747Z,80.72
2023-01-08T10:36:10.662Z,80.58
2023-01-08T10:38:44.219Z,81.00
2023-01-08T10:41:12.726Z,81.32
2023-01-08T10:43:51.359Z,81.11
2023-01-08T10:46:23.910Z,80.27
2023-01-08T10:48:55.938Z,81.16
2023-01-08T10:51:24.977Z,80.31
2023-01-08T10:53:53.959Z,80.54
2023-01-08T10:56:34.155Z,79.52
2023-01-08T10:59:02.132Z,79.11
2023-01-08T11:01:30.252Z,78.46
2023-01-08T11:03:58.214Z,79.64
2023-01-08T11:06:34.460Z,78.72
2023-01-08T11:09:03.123Z,80.00
2023-01-08T11:11:34.780Z,80.81
2023-01-08T11:14:04.488Z,79.63
2023-01-08T11:16:33.856Z,79.25
2023-01-08T11:19:00.767Z,79.38
2023-01-08T11:21:33.111Z,78.12
2023-01-08T11:24:21.788Z,78.80
2023-01-08T11:27:07.043Z,79.35
2023-01-08T11:29:39.156Z,78.31
2023-01-08T11:32:15.532Z,77.21
2023-01-08T11:34:59.437Z,77.34
2023-01-08T11:37:28.646Z,76.99
2023-01-08T11:39:55.854Z,77.25
2023-01-08T11:42:55.376Z,77.63
2023-01-08T11:45:53.595Z,77.29
2023-01-08T11:48:27.180Z,76.65
2023-01-08T11:51:21.429Z,77.13
2023-01-08T11:54:14.283Z,75.59
2023-01-08T11:56:57.668Z,75.04
2023-01-08T12:00:03.273Z,73.88
2023-01-08T12:02:51.643Z,74.01
2023-01-08T12:05:27.173Z,74.41
2023-01-08T12:08:15.358Z,73.43
2023-01-08T12:11:04.512Z,73.83
2023-01-08T12:13:51.734Z,73.64
2023-01-08T12:16:36.841Z,74.29
2023-01-08T12:19:51.122Z,74.50
2023-01-08T12:22:32.414Z,75.00
2023-01-08T12:25:50.779Z,75.61
2023-01-08T12:28:54.580Z,75.89
2023-01-08T12:32:01.539Z,75.28
2023-01-08T12:34:43.885Z,74.18
2023-01-08T12:37:27.662Z,75.16
2023-01-08T12:40:12.827Z,75.37
2023-01-08T12:42:47.296Z,75.08
2023-01-08T12:45:44.020Z,75.96
2023-01-08T12:48:16.272Z,77.44
2023-01-08T12:50:49.726Z,76.05
2023-01-08T12:53:46.188Z,76.07
2023-01-08T12:56:52.659Z,75.57
2023-01-08T12:59:34.492Z,75.23
2023-01-08T13:02:19.416Z,74.02
2023-01-08T13:04:47.534Z,73.29
2023-01-08T13:07:38.409Z,75.04
2023-01-08T13:10:07.707Z,74.47
2023-01-08T13:12:36.159Z,74.84
2023-01-08T13:15:03.657Z,73.96
2023-01-08T13:17:31.062Z,74.93
2023-01-08T13:20:02.460Z,74.13
2023-01-08T13:22:32.424Z,74.68
2023-01-08T13:25:17.371Z,73.87
2023-01-08T13:27:45.634Z,74.80
2023-01-08T13:30:36.238Z,74.46
2023-01-08T13:33:03.283Z,74.92
2023-01-08T13:35:31.909Z,74.44
2023-01-08T13:38:14.614Z,74.29
2023-01-08T13:40:44.558Z,74.21
2023-01-08T13:43:31.821Z,74.73
2023-01-08T13:45:58.597Z,74.16
2023-01-08T13:48:27.877Z,73.23
2023-01-08T13:50:54.843Z,74.39
2023-01-08T13:53:22.098Z,74.61
2023-01-08T13:55:54.878Z,75.10
2023-01-08T13:58:30.837Z,75.48
2023-01-08T14:00:58.654Z,74.47
2023-01-08T14:03:35.198Z,75.23
2023-01-08T14:06:25.745Z,75.09
2023-01-08T14:08:58.487Z,73.80
2023-01-08T14:11:30.689Z,75.52
2023-01-08T14:13:58.581Z,74.52
2023-01-08T14:16:26.173Z,75.23
2023-01-08T14:18:55.083Z,75.24
2023-01-08T14:21:23.369Z,75.21
2023-01-08T14:23:51.570Z,75.72
2023-01-08T14:26:38.970Z,75.72
2023-01-08T14:29:22.734Z,76.77
2023-01-08T14:31:55.320Z,76.08
2023-01-08T14:34:23.132Z,76.83
2023-01-08T14:36:52.069Z,76.17
2023-01-08T14:39:31.932Z,75.60
2023-01-08T14:42:42.701Z,75.46
2023-01-08T14:45:21.300Z,75.41
2023-01-08T14:47:51.433Z,74.91
2023-01-08T14:50:21.216Z,75.77
2023-01-08T14:52:48.895Z,76.07
2023-01-08T14:55:18.973Z,76.27
2023-01-08T14:57:47.852Z,76.90
2023-01-08T15:00:21.576Z,76.81
2023-01-08T15:02:49.753Z,75.44
2023-01-08T15:05:25.021Z,75.19
2023-01-08T15:08:04.858Z,75.18
2023-01-08T15:10:33.957Z,75.49
2023-01-08T15:13:03.902Z,75.42
2023-01-08T15:15:32.542Z,75.54
2023-01-08T15:18:00.471Z,75.01
2023-01-08T15:20:31.888Z,74.89
2023-01-08T15:22:59.797Z,75.39
2023-01-08T15:25:28.991Z,75.12
2023-01-08T15:28:01.817Z,75.56
2023-01-08T15:30:40.228Z,75.45
2023-01-08T15:33:29.259Z,74.93
2023-01-08T15:35:57.429Z,75.66
2023-01-08T15:38:25.231Z,76.34
2023-01-08T15:40:53.815Z,75.05
2023-01-08T15:43:21.894Z,75.99
2023-01-08T15:45:50.547Z,76.53
2023-01-08T15:48:18.073Z,76.95
2023-01-08T15:50:45.826Z,76.94
2023-01-08T15:53:15.839Z,77.34
2023-01-08T15:55:44.810Z,77.53
2023-01-08T15:58:13.149Z,77.57
2023-01-08T16:00:42.416Z,78.14
2023-01-08T16:03:10.189Z,77.83
2023-01-08T16:05:37.658Z,78.85
2023-01-08T16:08:05.514Z,78.35
2023-01-08T16:10:33.623Z,79.33
2023-01-08T16:13:01.853Z,79.20
2023-01-08T16:15:31.310Z,79.96
2023-01-08T16:17:59.744Z,80.36
2023-01-08T16:20:27.573Z,80.75
2023-01-08T16:22:55.553Z,81.08
2023-01-08T16:25:24.359Z,80.54
2023-01-08T16:27:52.469Z,80.58
2023-01-08T16:30:20.099Z,80.57
2023-01-08T16:32:54.165Z,80.55
2023-01-08T16:35:22.306Z,79.85
2023-01-08T16:37:49.708Z,80.93
2023-01-08T16:40:17.370Z,79.65
2023-01-08T16:42:44.602Z,79.34
2023-01-08T16:45:12.248Z,79.21
2023-01-08T16:47:39.991Z,78.83
2023-01-08T16:50:08.351Z,79.40
2023-01-08T16:52:37.986Z,79.72
2023-01-08T16:59:23.189Z,79.09
2023-01-08T17:01:52.111Z,79.62
2023-01-08T17:04:19.353Z,79.27
2023-01-08T17:06:47.006Z,79.22
2023-01-08T17:09:15.021Z,79.47
2023-01-08T17:11:42.563Z,79.50
2023-01-08T17:14:10.080Z,78.96
2023-01-08T17:16:37.251Z,78.39
2023-01-08T17:19:04.353Z,78.27
2023-01-08T17:21:31.210Z,78.31
2023-01-08T17:23:58.011Z,78.35
2023-01-08T17:26:24.927Z,77.20
2023-01-08T17:28:51.719Z,78.14
2023-01-08T17:31:19.664Z,77.55
2023-01-08T17:33:50.919Z,78.36
2023-01-08T17:36:26.063Z,78.00
2023-01-08T17:38:54.509Z,77.66
2023-01-08T17:41:41.054Z,77.72
2023-01-08T17:44:09.943Z,77.10
2023-01-08T17:46:42.299Z,77.55
2023-01-08T17:49:11.346Z,77.43
2023-01-08T17:51:40.770Z,76.97
2023-01-08T17:54:15.290Z,76.52
2023-01-08T17:56:42.470Z,77.40
2023-01-08T17:59:13.075Z,77.45
2023-01-08T18:01:40.287Z,78.00
2023-01-08T18:04:07.030Z,77.30
2023-01-08T18:06:34.510Z,78.17
2023-01-08T18:09:01.986Z,77.89
2023-01-08T18:11:29.407Z,78.08
2023-01-08T18:13:58.282Z,78.47
2023-01-08T18:16:27.845Z,79.28
2023-01-08T18:18:57.064Z,78.67
2023-01-08T18:21:24.865Z,78.89
2023-01-08T18:23:52.419Z,79.04
2023-01-08T18:34:43.714Z,80.52
2023-01-08T18:37:10.886Z,81.25
2023-01-08T18:39:37.710Z,80.80
2023-01-08T18:42:23.389Z,81.08
2023-01-08T18:44:52.668Z,81.21
2023-01-08T18:47:20.603Z,81.58
2023-01-08T18:49:47.514Z,80.94
2023-01-08T18:52:15.380Z,81.20
2023-01-08T18:54:42.145Z,80.18
2023-01-08T18:57:09.235Z,81.80
2023-01-08T18:59:36.072Z,82.04
2023-01-08T19:02:03.255Z,81.52
2023-01-08T19:04:30.140Z,81.72
2023-01-08T19:06:57.079Z,81.86
2023-01-08T19:09:24.244Z,82.14
2023-01-08T19:11:51.208Z,82.22
2023-01-08T19:14:19.035Z,81.30
2023-01-08T19:16:51.301Z,81.58
2023-01-08T19:19:19.957Z,80.34
2023-01-08T19:21:47.618Z,80.26
2023-01-08T19:24:14.993Z,79.80
2023-01-08T19:26:42.304Z,80.46
2023-01-08T19:29:09.836Z,79.88
2023-01-08T19:31:37.344Z,79.48
2023-01-08T19:34:05.475Z,80.25
2023-01-08T19:36:34.320Z,80.11
2023-01-08T19:39:01.958Z,80.57
2023-01-08T19:41:47.876Z,80.83
2023-01-08T19:44:15.278Z,81.18
2023-01-08T19:46:42.660Z,81.81
2023-01-08T19:49:10.001Z,81.52
2023-01-08T19:51:37.296Z,82.29
2023-01-08T19:54:05.119Z,82.38
2023-01-08T19:56:32.497Z,82.54
2023-01-08T19:59:00.037Z,82.36
2023-01-08T20:01:28.592Z,82.50
2023-01-08T20:03:56.863Z,81.89
2023-01-08T20:06:26.554Z,82.60
2023-01-08T20:08:57.616Z,83.44
2023-01-08T20:11:25.541Z,83.04
2023-01-08T20:13:52.886Z,82.82
2023-01-08T20:16:21.473Z,82.95
2023-01-08T20:18:48.877Z,82.89
2023-01-08T20:21:20.954Z,83.14
2023-01-08T20:23:48.589Z,83.04
2023-01-08T20:26:18.256Z,82.81
2023-01-08T20:28:46.793Z,83.32
2023-01-08T20:31:20.772Z,83.13
2023-01-08T20:33:48.915Z,82.92
2023-01-08T20:36:19.267Z,82.95
2023-01-08T20:38:47.195Z,82.68
2023-01-08T20:41:14.410Z,82.69
2023-01-08T20:43:42.107Z,82.74
2023-01-08T20:46:14.903Z,82.19
2023-01-08T20:48:47.633Z,82.64
2023-01-08T20:51:16.220Z,82.23
2023-01-08T20:53:43.409Z,83.34
2023-01-08T20:56:13.370Z,82.52
2023-01-08T20:58:42.706Z,83.04
2023-01-08T21:01:16.108Z,82.75
2023-01-08T21:03:44.503Z,82.30
2023-01-08T21:06:20.636Z,82.10
2023-01-08T21:08:49.773Z,82.74
2023-01-08T21:11:18.260Z,82.17
2023-01-08T21:13:46.028Z,82.74
2023-01-08T21:16:16.542Z,83.84
2023-01-08T21:18:49.485Z,84.69
2023-01-08T21:21:20.886Z,85.29
2023-01-08T21:23:48.793Z,86.48
2023-01-08T21:26:17.585Z,86.57
2023-01-08T21:28:46.692Z,88.50
2023-01-08T21:31:19.837Z,88.05
2023-01-08T21:33:51.828Z,88.78
2023-01-08T21:36:24.269Z,90.41
2023-01-08T21:38:52.252Z,89.69
2023-01-08T21:41:40.665Z,90.50
2023-01-08T21:44:38.107Z,90.49
2023-01-08T21:47:07.726Z,91.35
2023-01-08T21:49:38.474Z,96.35
2023-01-08T21:52:25.236Z,96.09
2023-01-08T21:54:53.247Z,94.19
2023-01-08T21:57:20.989Z,91.98
2023-01-08T21:59:51.975Z,91.03
2023-01-08T22:02:21.742Z,90.38
2023-01-08T22:04:49.294Z,90.27
2023-01-08T22:07:17.008Z,89.32
2023-01-08T22:09:44.521Z,91.15
2023-01-08T22:12:14.303Z,90.33
2023-01-08T22:14:41.947Z,90.59
2023-01-08T22:17:09.556Z,90.84
2023-01-08T22:19:40.411Z,91.66
2023-01-08T22:22:10.478Z,91.80
2023-01-08T22:24:38.614Z,92.51
2023-01-08T22:27:06.306Z,92.25
2023-01-08T22:29:33.727Z,91.91
2023-01-08T22:32:01.182Z,92.13
2023-01-08T22:34:32.420Z,91.79
2023-01-08T22:36:59.598Z,91.29
2023-01-08T22:39:27.446Z,91.12
2023-01-08T22:41:54.686Z,90.91
2023-01-08T22:44:22.329Z,91.55
2023-01-08T22:46:49.626Z,91.79
2023-01-08T22:49:17.286Z,91.63
2023-01-08T22:51:44.630Z,91.94
2023-01-08T22:54:17.511Z,91.48
2023-01-08T22:56:44.812Z,91.78
2023-01-08T22:59:12.447Z,91.64
2023-01-08T23:01:40.070Z,90.77
2023-01-08T23:04:07.501Z,91.10
2023-01-08T23:06:35.269Z,90.16
2023-01-08T23:09:02.749Z,90.43
2023-01-08T23:11:30.751Z,90.72
2023-01-08T23:13:58.331Z,90.17
2023-01-08T23:16:25.944Z,90.03
2023-01-08T23:18:54.767Z,90.02
2023-01-08T23:21:24.813Z,90.19
2023-01-08T23:23:53.149Z,90.13
2023-01-08T23:26:23.549Z,89.95
2023-01-08T23:28:52.271Z,89.98
2023-01-08T23:31:22.921Z,89.65
2023-01-08T23:33:50.908Z,89.00
2023-01-08T23:36:21.495Z,88.65
2023-01-08T23:38:50.887Z,88.88
2023-01-08T23:41:19.410Z,87.15
2023-01-08T23:43:48.978Z,88.60
2023-01-08T23:46:16.979Z,87.92
2023-01-08T23:48:44.390Z,87.73
2023-01-08T23:51:12.220Z,88.45
2023-01-08T23:53:39.657Z,87.46
2023-01-08T23:56:07.823Z,88.44
2023-01-08T23:58:36.277Z,88.57
